Time;durP1;ratioP1;P1;durP2;ratioP2;P2;SDS_P1;SDS_P2;PMS_P1;PMS_P2;Temp;Humidity;BMP_temperature;BMP_pressure;BME280_temperature;BME280_humidity;BME280_pressure;Samples;Min_cycle;Max_cycle;Signal;HPM_P1;HPM_P2
2023/12/31 00:02:05;;;;;;;3.00;1.70;;;;;;;4.51;92.77;96486.66;107815;1290;22680;-88
2023/12/31 00:04:32;;;;;;;6.10;1.90;;;;;;;4.47;92.70;96490.14;107860;1291;22584;-88
2023/12/31 00:06:59;;;;;;;4.70;2.00;;;;;;;4.44;92.49;96490.10;107770;1286;137466;-88
2023/12/31 00:09:26;;;;;;;6.60;3.60;;;;;;;4.41;92.90;96492.41;108213;1284;22597;-89
2023/12/31 00:11:53;;;;;;;2.20;1.50;;;;;;;4.39;92.82;96490.68;108151;1284;137450;-88
2023/12/31 00:14:20;;;;;;;3.70;1.70;;;;;;;4.35;92.95;96489.84;108332;1284;22539;-88
2023/12/31 00:16:48;;;;;;;3.90;1.70;;;;;;;4.30;93.10;96491.35;108342;1269;22583;-88
2023/12/31 00:19:18;;;;;;;4.40;1.80;;;;;;;4.26;92.73;96491.39;108468;1284;137165;-88
2023/12/31 00:21:45;;;;;;;3.70;2.00;;;;;;;4.21;92.75;96489.05;108416;1284;22545;-89
2023/12/31 00:24:12;;;;;;;6.20;2.70;;;;;;;4.17;92.96;96487.06;108279;1284;137975;-87
2023/12/31 00:26:39;;;;;;;4.00;2.20;;;;;;;4.12;92.91;96486.29;108343;1284;22567;-88
2023/12/31 00:29:06;;;;;;;4.00;1.90;;;;;;;4.08;92.85;96491.98;108255;1284;22542;-88
2023/12/31 00:31:33;;;;;;;4.10;2.40;;;;;;;4.04;92.92;96494.55;108207;1279;22546;-88
2023/12/31 00:33:59;;;;;;;5.30;2.20;;;;;;;4.01;93.30;96500.67;108357;1281;22554;-88
2023/12/31 00:36:27;;;;;;;5.60;2.90;;;;;;;3.97;93.12;96499.83;108264;1284;137351;-89
2023/12/31 00:38:53;;;;;;;4.60;2.70;;;;;;;3.94;93.33;96501.16;108253;1284;25442;-88
2023/12/31 00:41:20;;;;;;;5.80;3.50;;;;;;;3.89;93.51;96500.69;108205;1283;137956;-87
2023/12/31 00:43:46;;;;;;;5.70;3.50;;;;;;;3.83;93.53;96498.48;108339;1279;22589;-88
2023/12/31 00:46:13;;;;;;;5.50;3.00;;;;;;;3.81;94.27;96496.67;108306;1284;23366;-90
2023/12/31 00:48:40;;;;;;;5.80;2.50;;;;;;;3.79;94.31;96494.41;108178;1277;137232;-89
2023/12/31 00:51:07;;;;;;;4.90;2.90;;;;;;;3.78;94.28;96497.63;108336;1284;25863;-89
2023/12/31 00:53:34;;;;;;;4.80;2.30;;;;;;;3.75;94.70;96495.83;108237;1283;137305;-89
2023/12/31 00:56:00;;;;;;;6.70;2.90;;;;;;;3.75;95.16;96494.60;108389;1282;22535;-89
2023/12/31 00:58:27;;;;;;;4.60;2.50;;;;;;;3.73;95.31;96494.80;108212;1277;22568;-89
2023/12/31 01:00:54;;;;;;;5.20;2.50;;;;;;;3.72;95.46;96491.13;108149;1284;137181;-89
2023/12/31 01:03:20;;;;;;;5.30;2.70;;;;;;;3.71;95.77;96487.45;108314;1283;22538;-88
2023/12/31 01:05:47;;;;;;;4.50;2.60;;;;;;;3.69;95.61;96484.69;108195;1285;137462;-89
2023/12/31 01:08:15;;;;;;;5.40;3.00;;;;;;;3.68;95.88;96485.70;108318;1282;25372;-89
2023/12/31 01:10:41;;;;;;;4.50;2.60;;;;;;;3.67;96.39;96488.62;108312;1282;22601;-89
2023/12/31 01:13:08;;;;;;;5.30;2.60;;;;;;;3.68;96.60;96484.83;108312;1279;137194;-89
2023/12/31 01:15:35;;;;;;;3.60;2.00;;;;;;;3.67;96.49;96486.27;108407;1278;22644;-89
2023/12/31 01:18:01;;;;;;;5.40;2.90;;;;;;;3.65;96.84;96485.44;108404;1276;137114;-89
2023/12/31 01:20:28;;;;;;;6.10;2.60;;;;;;;3.63;97.06;96484.41;108448;1281;22614;-89
2023/12/31 01:22:55;;;;;;;5.00;2.30;;;;;;;3.65;97.26;96484.41;108463;1277;22566;-90
2023/12/31 01:25:22;;;;;;;4.00;2.40;;;;;;;3.67;97.17;96480.64;108247;1279;137098;-89
2023/12/31 01:27:49;;;;;;;5.30;2.10;;;;;;;3.68;97.60;96477.45;108527;1274;22654;-88
2023/12/31 01:30:16;;;;;;;4.20;2.20;;;;;;;3.67;97.42;96473.39;108230;1278;137199;-89
2023/12/31 01:32:43;;;;;;;5.70;2.30;;;;;;;3.68;97.66;96475.04;108490;1281;22614;-89
2023/12/31 01:35:10;;;;;;;5.00;2.40;;;;;;;3.68;97.93;96472.65;108373;1281;137677;-89
2023/12/31 01:37:37;;;;;;;8.10;2.90;;;;;;;3.66;97.50;96472.12;108481;1273;24250;-88
2023/12/31 01:40:04;;;;;;;6.20;2.80;;;;;;;3.65;98.16;96473.33;108522;1281;23279;-89
2023/12/31 01:42:31;;;;;;;3.50;2.20;;;;;;;3.67;98.12;96465.70;108409;1280;137335;-89
2023/12/31 01:44:58;;;;;;;5.50;2.30;;;;;;;3.68;97.79;96467.11;108547;1277;22538;-88
2023/12/31 01:47:24;;;;;;;5.20;2.30;;;;;;;3.69;98.07;96466.89;108292;1281;137257;-89
2023/12/31 01:49:51;;;;;;;7.70;2.80;;;;;;;3.69;97.97;96465.55;108475;1277;22543;-89
2023/12/31 01:52:18;;;;;;;5.60;2.50;;;;;;;3.69;97.83;96460.27;108553;1267;22559;-88
2023/12/31 01:54:45;;;;;;;3.60;2.10;;;;;;;3.64;97.80;96458.98;108429;1281;137285;-89
2023/12/31 01:57:12;;;;;;;4.50;2.00;;;;;;;3.58;97.83;96460.15;108436;1278;25532;-88
2023/12/31 01:59:38;;;;;;;4.90;2.70;;;;;;;3.58;98.02;96458.59;108618;1273;137557;-89
2023/12/31 02:02:05;;;;;;;3.10;2.10;;;;;;;3.60;97.91;96458.64;108422;1273;24284;-89
2023/12/31 02:04:33;;;;;;;4.20;2.30;;;;;;;3.58;98.08;96456.86;108575;1280;22618;-88
2023/12/31 02:07:00;;;;;;;3.50;1.80;;;;;;;3.58;97.98;96457.73;108346;1280;137271;-89
2023/12/31 02:09:28;;;;;;;3.70;2.00;;;;;;;3.58;98.34;96459.44;108523;1274;22598;-89
2023/12/31 02:11:55;;;;;;;3.10;1.50;;;;;;;3.58;98.42;96459.42;108379;1273;137301;-89
2023/12/31 02:14:21;;;;;;;2.50;1.90;;;;;;;3.58;98.04;96458.12;108584;1281;22739;-89
2023/12/31 02:16:48;;;;;;;2.90;1.70;;;;;;;3.57;98.03;96457.63;108513;1280;23873;-88
2023/12/31 02:19:15;;;;;;;2.60;1.80;;;;;;;3.57;97.92;96457.79;108488;1273;137267;-89
2023/12/31 02:21:42;;;;;;;4.50;2.10;;;;;;;3.55;97.96;96452.70;108516;1273;22638;-89
2023/12/31 02:24:10;;;;;;;3.80;1.70;;;;;;;3.53;97.84;96452.73;108350;1281;137300;-89
2023/12/31 02:26:37;;;;;;;3.40;1.60;;;;;;;3.51;98.13;96452.73;108520;1281;22547;-88
2023/12/31 02:29:04;;;;;;;3.50;1.90;;;;;;;3.50;98.03;96448.23;108623;1280;23975;-89
2023/12/31 02:31:33;;;;;;;4.70;1.80;;;;;;;3.49;97.96;96451.88;108521;1280;137233;-88
2023/12/31 02:33:59;;;;;;;3.10;1.50;;;;;;;3.48;97.97;96449.96;108512;1280;22750;-88
2023/12/31 02:36:26;;;;;;;3.40;1.40;;;;;;;3.45;97.68;96448.10;108390;1273;137781;-88
2023/12/31 02:38:53;;;;;;;4.00;1.80;;;;;;;3.43;97.78;96442.80;108421;1273;23273;-88
2023/12/31 02:41:19;;;;;;;1.90;1.40;;;;;;;3.40;97.87;96447.33;108372;1273;137679;-89
2023/12/31 02:43:47;;;;;;;2.70;1.70;;;;;;;3.38;97.99;96447.41;108655;1276;22559;-89
2023/12/31 02:46:14;;;;;;;1.70;1.60;;;;;;;3.37;98.42;96440.33;108537;1273;22558;-89
2023/12/31 02:48:40;;;;;;;4.10;1.70;;;;;;;3.37;98.56;96439.05;108464;1260;137723;-88
2023/12/31 02:51:07;;;;;;;4.10;1.90;;;;;;;3.37;98.58;96441.16;108462;1273;22970;-89
2023/12/31 02:53:34;;;;;;;3.00;1.70;;;;;;;3.37;98.57;96441.11;108342;1273;137625;-89
2023/12/31 02:56:01;;;;;;;4.80;1.80;;;;;;;3.36;98.77;96437.11;108423;1277;26363;-89
2023/12/31 02:58:28;;;;;;;4.40;1.70;;;;;;;3.35;98.55;96437.70;108439;1280;22527;-88
2023/12/31 03:00:55;;;;;;;2.30;1.50;;;;;;;3.33;98.89;96438.91;108374;1279;137452;-89
2023/12/31 03:03:21;;;;;;;5.70;1.90;;;;;;;3.33;98.91;96434.43;108525;1280;22550;-88
2023/12/31 03:05:48;;;;;;;5.30;3.60;;;;;;;3.33;98.84;96435.82;108493;1273;137438;-88
2023/12/31 03:08:16;;;;;;;3.10;2.00;;;;;;;3.34;98.92;96434.42;108708;1277;25330;-88
2023/12/31 03:10:42;;;;;;;3.70;1.80;;;;;;;3.34;99.37;96433.23;108736;1277;22614;-89
2023/12/31 03:13:09;;;;;;;3.10;1.50;;;;;;;3.35;99.08;96429.20;108449;1276;137519;-88
2023/12/31 03:15:36;;;;;;;5.50;1.80;;;;;;;3.36;99.03;96429.54;108737;1273;22617;-89
2023/12/31 03:18:04;;;;;;;3.70;2.40;;;;;;;3.36;99.03;96424.97;108396;1280;137480;-89
2023/12/31 03:20:30;;;;;;;3.70;1.60;;;;;;;3.36;98.96;96426.80;108474;1280;22563;-88
2023/12/31 03:22:57;;;;;;;4.10;2.00;;;;;;;3.39;99.01;96425.21;108577;1277;26651;-88
2023/12/31 03:25:24;;;;;;;2.90;2.10;;;;;;;3.39;98.68;96428.67;108439;1276;137330;-89
2023/12/31 03:27:51;;;;;;;3.40;2.20;;;;;;;3.37;98.86;96430.70;108546;1272;22576;-87
2023/12/31 03:30:18;;;;;;;4.00;2.20;;;;;;;3.35;99.18;96430.22;108550;1272;137511;-88
2023/12/31 03:32:45;;;;;;;2.80;1.90;;;;;;;3.31;99.31;96427.11;108525;1276;22589;-88
2023/12/31 03:35:11;;;;;;;5.60;2.10;;;;;;;3.30;99.39;96426.69;108604;1273;137703;-87
2023/12/31 03:37:38;;;;;;;3.60;1.90;;;;;;;3.28;99.09;96427.85;108575;1279;22529;-88
2023/12/31 03:40:06;;;;;;;3.40;2.20;;;;;;;3.26;99.07;96425.70;108622;1278;22637;-87
2023/12/31 03:42:33;;;;;;;3.70;2.30;;;;;;;3.25;99.15;96422.02;108569;1279;137524;-88
2023/12/31 03:45:02;;;;;;;2.60;2.40;;;;;;;3.24;99.06;96428.40;108864;1273;24586;-89
2023/12/31 03:47:31;;;;;;;2.70;1.50;;;;;;;3.24;99.20;96427.54;108812;1273;137670;-89
2023/12/31 03:49:58;;;;;;;2.70;1.80;;;;;;;3.24;99.28;96430.13;108925;1274;22569;-89
2023/12/31 03:52:25;;;;;;;3.50;1.90;;;;;;;3.20;99.15;96429.27;108828;1278;22488;-88
2023/12/31 03:54:52;;;;;;;3.20;1.90;;;;;;;3.20;99.19;96425.84;108907;1279;136754;-89
2023/12/31 03:57:20;;;;;;;3.40;1.80;;;;;;;3.22;99.19;96430.84;108939;1279;22531;-88
2023/12/31 03:59:47;;;;;;;3.60;1.90;;;;;;;3.21;99.44;96427.33;108466;1280;137839;-88
2023/12/31 04:02:14;;;;;;;2.60;1.60;;;;;;;3.18;99.33;96426.39;108532;1273;22504;-88
2023/12/31 04:04:41;;;;;;;3.90;1.80;;;;;;;3.16;99.53;96423.98;108465;1279;22573;-88
2023/12/31 04:07:07;;;;;;;3.00;1.90;;;;;;;3.15;99.34;96418.92;108405;1273;137703;-88
2023/12/31 04:09:35;;;;;;;2.90;1.60;;;;;;;3.16;99.69;96418.88;108481;1280;22559;-88
2023/12/31 04:12:04;;;;;;;3.30;1.50;;;;;;;3.14;99.93;96414.73;108438;1270;137656;-88
2023/12/31 04:14:31;;;;;;;4.50;1.60;;;;;;;3.15;99.69;96414.30;108443;1273;22735;-88
2023/12/31 04:16:58;;;;;;;7.00;1.70;;;;;;;3.16;99.87;96410.84;108450;1280;24405;-88
2023/12/31 04:19:25;;;;;;;2.40;1.40;;;;;;;3.15;99.73;96413.98;108368;1280;137634;-89
2023/12/31 04:21:51;;;;;;;4.00;1.60;;;;;;;3.14;99.76;96411.55;108462;1280;22538;-89
2023/12/31 04:24:18;;;;;;;2.50;1.40;;;;;;;3.12;99.62;96414.06;108366;1279;137580;-89
2023/12/31 04:26:45;;;;;;;3.00;2.10;;;;;;;3.10;99.82;96414.28;108609;1274;25186;-89
2023/12/31 04:29:11;;;;;;;4.90;1.40;;;;;;;3.07;99.85;96411.42;108523;1275;137567;-88
2023/12/31 04:31:45;;;;;;;3.60;1.30;;;;;;;3.04;99.90;96409.31;108493;1273;22560;-88
2023/12/31 04:34:12;;;;;;;4.70;1.60;;;;;;;3.00;99.77;96405.48;108639;1280;22524;-88
2023/12/31 04:36:43;;;;;;;2.20;1.30;;;;;;;2.98;99.88;96402.33;108574;1265;137611;-88
2023/12/31 04:39:11;;;;;;;3.30;1.80;;;;;;;2.96;100.00;96406.58;108386;1281;26242;-88
2023/12/31 04:41:38;;;;;;;2.60;1.40;;;;;;;2.96;100.00;96408.79;108494;1280;138021;-89
2023/12/31 04:44:05;;;;;;;3.90;1.30;;;;;;;2.97;100.00;96404.79;108441;1278;22534;-88
2023/12/31 04:46:31;;;;;;;2.90;1.20;;;;;;;2.96;100.00;96398.20;108457;1280;22535;-88
2023/12/31 04:48:59;;;;;;;6.70;1.50;;;;;;;2.95;100.00;96396.57;108252;1280;137878;-89
2023/12/31 04:51:26;;;;;;;2.10;1.30;;;;;;;2.94;100.00;96397.20;108481;1273;22548;-88
2023/12/31 04:53:53;;;;;;;1.80;1.40;;;;;;;2.93;100.00;96396.03;108369;1276;138415;-88
2023/12/31 04:56:21;;;;;;;1.60;1.20;;;;;;;2.93;100.00;96390.41;108379;1279;23033;-89
2023/12/31 04:58:51;;;;;;;2.70;1.10;;;;;;;2.92;100.00;96386.86;108636;1280;22538;-89
2023/12/31 05:01:18;;;;;;;2.80;1.40;;;;;;;2.90;100.00;96392.41;108447;1271;137718;-88
2023/12/31 05:03:46;;;;;;;3.20;1.20;;;;;;;2.90;100.00;96391.85;108392;1279;22689;-88
2023/12/31 05:06:13;;;;;;;2.90;1.30;;;;;;;2.91;100.00;96396.73;108470;1279;137648;-89
2023/12/31 05:08:44;;;;;;;3.90;1.30;;;;;;;2.89;100.00;96392.28;108461;1279;22568;-89
2023/12/31 05:11:11;;;;;;;4.40;2.70;;;;;;;2.86;100.00;96391.70;108611;1276;137722;-86
2023/12/31 05:13:38;;;;;;;3.20;1.80;;;;;;;2.86;100.00;96393.29;109002;1273;22554;-89
2023/12/31 05:16:15;;;;;;;2.30;1.40;;;;;;;2.87;100.00;96389.61;108415;1276;24170;-89
2023/12/31 05:18:52;;;;;;;5.10;1.60;;;;;;;2.85;100.00;96388.91;108423;1277;137638;-89
2023/12/31 05:21:19;;;;;;;2.70;1.40;;;;;;;2.84;100.00;96385.61;108526;1279;22552;-89
2023/12/31 05:23:46;;;;;;;4.00;1.30;;;;;;;2.83;100.00;96386.86;108433;1279;138356;-88
2023/12/31 05:26:13;;;;;;;4.20;1.50;;;;;;;2.83;100.00;96381.72;108444;1273;22582;-87
2023/12/31 05:28:40;;;;;;;1.80;1.40;;;;;;;2.84;100.00;96380.42;108618;1275;25332;-89
2023/12/31 05:31:06;;;;;;;1.90;1.40;;;;;;;2.85;100.00;96380.48;108434;1279;138614;-89
2023/12/31 05:33:33;;;;;;;2.20;1.40;;;;;;;2.85;100.00;96378.32;108569;1279;24397;-89
2023/12/31 05:36:00;;;;;;;2.70;1.40;;;;;;;2.85;100.00;96377.43;108494;1277;138828;-89
2023/12/31 05:38:26;;;;;;;1.70;1.10;;;;;;;2.86;100.00;96378.73;108539;1280;22584;-88
2023/12/31 05:40:53;;;;;;;2.30;1.20;;;;;;;2.85;100.00;96375.22;108502;1277;25293;-89
2023/12/31 05:43:20;;;;;;;4.00;1.60;;;;;;;2.83;100.00;96369.22;108361;1280;137858;-89
2023/12/31 05:45:46;;;;;;;3.90;1.50;;;;;;;2.82;100.00;96359.77;108474;1280;22537;-88
2023/12/31 05:48:13;;;;;;;2.20;1.80;;;;;;;2.83;100.00;96359.17;108357;1279;137698;-89
2023/12/31 05:50:40;;;;;;;2.00;1.60;;;;;;;2.81;100.00;96356.91;108439;1275;22537;-88
2023/12/31 05:54:07;;;;;;;2.50;1.30;;;;;;;2.81;100.00;96349.39;108664;1279;22572;-89
2023/12/31 05:56:57;;;;;;;2.90;1.70;;;;;;;2.81;100.00;96339.99;109929;1272;22397;-89
2023/12/31 05:59:24;;;;;;;1.40;1.10;;;;;;;2.82;100.00;96340.38;108823;1273;137829;-89
2023/12/31 06:01:51;;;;;;;2.70;1.30;;;;;;;2.84;100.00;96340.04;108508;1277;22569;-88
2023/12/31 06:04:18;;;;;;;1.80;1.10;;;;;;;2.86;100.00;96343.48;108575;1272;22532;-89
2023/12/31 06:06:45;;;;;;;2.80;1.40;;;;;;;2.88;100.00;96345.36;108412;1275;137577;-89
2023/12/31 06:09:13;;;;;;;3.10;1.00;;;;;;;2.88;100.00;96342.92;108433;1277;24292;-88
2023/12/31 06:11:41;;;;;;;2.20;1.20;;;;;;;2.87;100.00;96336.20;109088;1279;136702;-89
2023/12/31 06:14:08;;;;;;;2.40;1.40;;;;;;;2.84;100.00;96338.98;108598;1273;22633;-89
2023/12/31 06:16:34;;;;;;;3.80;1.20;;;;;;;2.79;100.00;96333.33;108586;1278;22525;-89
2023/12/31 06:19:01;;;;;;;3.70;1.20;;;;;;;2.78;100.00;96335.32;108380;1279;137584;-89
2023/12/31 06:21:28;;;;;;;1.70;0.90;;;;;;;2.76;100.00;96332.36;108691;1272;24276;-89
2023/12/31 06:23:55;;;;;;;2.10;1.00;;;;;;;2.73;100.00;96326.13;108746;1276;137792;-88
2023/12/31 06:26:23;;;;;;;2.50;1.10;;;;;;;2.72;100.00;96320.39;108648;1280;22495;-88
2023/12/31 06:28:56;;;;;;;3.90;1.40;;;;;;;2.73;100.00;96313.48;108631;1279;22613;-88
2023/12/31 06:31:22;;;;;;;1.50;0.90;;;;;;;2.74;100.00;96313.21;109538;1275;137907;-89
2023/12/31 06:33:49;;;;;;;3.30;1.60;;;;;;;2.75;100.00;96313.98;108782;1270;22562;-89
2023/12/31 06:36:16;;;;;;;1.70;1.50;;;;;;;2.76;100.00;96311.50;108440;1281;138138;-89
2023/12/31 06:38:42;;;;;;;1.70;1.00;;;;;;;2.78;100.00;96311.31;108449;1281;22927;-89
2023/12/31 06:41:10;;;;;;;3.00;1.30;;;;;;;2.79;100.00;96308.15;108397;1275;22594;-89
2023/12/31 06:43:38;;;;;;;1.80;1.30;;;;;;;2.79;100.00;96304.39;108519;1275;138217;-89
2023/12/31 06:46:05;;;;;;;2.10;1.10;;;;;;;2.79;100.00;96300.27;108342;1281;22693;-88
2023/12/31 06:48:32;;;;;;;2.20;1.00;;;;;;;2.79;100.00;96300.64;108411;1280;137549;-89
2023/12/31 06:50:59;;;;;;;1.80;0.80;;;;;;;2.79;100.00;96300.52;108443;1280;24028;-89
2023/12/31 06:53:25;;;;;;;1.80;1.00;;;;;;;2.80;100.00;96295.29;108336;1282;137917;-89
2023/12/31 06:55:52;;;;;;;1.70;1.10;;;;;;;2.80;100.00;96292.70;108495;1275;22573;-89
2023/12/31 06:58:19;;;;;;;2.70;1.20;;;;;;;2.81;100.00;96289.05;108558;1276;22661;-89
2023/12/31 07:00:45;;;;;;;2.90;1.40;;;;;;;2.81;100.00;96286.27;108374;1266;136554;-89
2023/12/31 07:03:12;;;;;;;2.00;1.00;;;;;;;2.81;100.00;96286.92;108374;1281;22528;-89
2023/12/31 07:05:39;;;;;;;1.40;1.10;;;;;;;2.83;100.00;96284.24;108307;1277;138902;-89
2023/12/31 07:08:09;;;;;;;1.90;1.20;;;;;;;2.84;100.00;96281.21;108292;1275;22527;-89
2023/12/31 07:10:36;;;;;;;2.50;1.40;;;;;;;2.84;100.00;96279.48;108427;1277;26245;-89
2023/12/31 07:13:02;;;;;;;1.80;1.30;;;;;;;2.86;100.00;96282.20;108301;1280;137598;-89
2023/12/31 07:15:30;;;;;;;3.30;1.30;;;;;;;2.89;100.00;96279.04;108438;1277;22573;-89
2023/12/31 07:18:04;;;;;;;2.00;1.20;;;;;;;2.91;100.00;96277.63;108531;1276;138234;-88
2023/12/31 07:20:31;;;;;;;2.00;1.10;;;;;;;2.93;100.00;96276.98;108561;1274;22553;-89
2023/12/31 07:23:00;;;;;;;2.10;1.30;;;;;;;2.95;100.00;96276.80;108524;1281;22671;-89
2023/12/31 07:25:28;;;;;;;2.90;1.10;;;;;;;2.98;100.00;96278.90;108278;1282;137632;-89
2023/12/31 07:27:56;;;;;;;1.60;1.10;;;;;;;3.00;100.00;96278.90;108563;1275;23125;-89
2023/12/31 07:30:23;;;;;;;1.30;1.10;;;;;;;3.03;100.00;96276.75;108636;1275;136713;-88
2023/12/31 07:32:50;;;;;;;2.10;1.40;;;;;;;3.06;100.00;96272.55;108548;1281;22541;-89
2023/12/31 07:35:17;;;;;;;1.50;1.10;;;;;;;3.10;100.00;96271.70;108351;1281;137843;-88
2023/12/31 07:37:44;;;;;;;1.30;0.90;;;;;;;3.14;100.00;96263.77;108566;1281;22594;-89
2023/12/31 07:40:13;;;;;;;1.70;1.10;;;;;;;3.17;100.00;96262.48;108707;1281;24284;-89
2023/12/31 07:42:40;;;;;;;2.50;1.20;;;;;;;3.20;100.00;96257.05;108338;1281;137692;-89
2023/12/31 07:45:07;;;;;;;2.00;1.30;;;;;;;3.24;100.00;96249.23;108497;1274;22561;-89
2023/12/31 07:47:39;;;;;;;4.20;1.30;;;;;;;3.27;100.00;96245.15;108393;1275;137923;-89
2023/12/31 07:50:08;;;;;;;2.40;1.10;;;;;;;3.30;100.00;96239.54;108510;1275;25548;-89
2023/12/31 07:52:36;;;;;;;1.60;1.10;;;;;;;3.34;100.00;96237.66;108485;1277;22541;-89
2023/12/31 07:55:03;;;;;;;1.20;1.10;;;;;;;3.37;100.00;96231.59;108324;1275;138299;-89
2023/12/31 07:57:30;;;;;;;1.70;1.00;;;;;;;3.41;100.00;96231.88;108490;1274;22655;-89
2023/12/31 07:59:57;;;;;;;2.40;1.00;;;;;;;3.46;100.00;96230.60;108333;1280;138032;-89
2023/12/31 08:02:23;;;;;;;1.30;1.10;;;;;;;3.51;100.00;96235.40;108407;1280;22542;-90
2023/12/31 08:04:50;;;;;;;2.60;1.40;;;;;;;3.55;100.00;96232.59;108424;1278;22550;-89
2023/12/31 08:07:17;;;;;;;3.10;1.20;;;;;;;3.60;100.00;96231.42;108407;1277;137828;-90
2023/12/31 08:09:45;;;;;;;2.90;1.10;;;;;;;3.66;100.00;96230.80;108598;1280;24274;-91
2023/12/31 08:12:12;;;;;;;1.60;1.20;;;;;;;3.69;100.00;96223.66;108437;1281;138609;-90
2023/12/31 08:14:39;;;;;;;3.80;1.20;;;;;;;3.72;100.00;96222.00;108468;1267;22830;-89
2023/12/31 08:17:06;;;;;;;2.40;1.00;;;;;;;3.74;100.00;96225.02;108452;1275;23997;-88
2023/12/31 08:19:33;;;;;;;1.60;1.20;;;;;;;3.77;100.00;96217.55;108456;1281;137657;-88
2023/12/31 08:22:00;;;;;;;2.20;1.30;;;;;;;3.81;100.00;96211.87;108915;1280;22651;-89
2023/12/31 08:24:28;;;;;;;1.40;1.20;;;;;;;3.87;100.00;96212.85;108734;1280;138072;-88
2023/12/31 08:27:05;;;;;;;6.40;4.10;;;;;;;3.89;100.00;96217.09;108773;1280;22926;-89
2023/12/31 08:29:32;;;;;;;24.90;14.50;;;;;;;3.90;100.00;96215.48;108408;1280;138214;-89
2023/12/31 08:31:59;;;;;;;13.30;7.00;;;;;;;3.90;100.00;96213.42;108570;1279;22568;-89
2023/12/31 08:34:26;;;;;;;22.80;12.00;;;;;;;3.90;100.00;96214.95;108483;1277;22537;-89
2023/12/31 08:36:59;;;;;;;12.80;7.90;;;;;;;3.89;100.00;96210.60;108454;1280;137946;-88
2023/12/31 08:39:26;;;;;;;12.30;8.50;;;;;;;3.88;100.00;96210.14;108364;1281;22605;-89
2023/12/31 08:41:53;;;;;;;14.50;9.80;;;;;;;3.85;100.00;96206.13;108364;1280;139280;-89
2023/12/31 08:44:20;;;;;;;13.20;8.50;;;;;;;3.80;100.00;96205.49;108565;1276;22549;-89
2023/12/31 08:46:47;;;;;;;14.30;9.80;;;;;;;3.70;100.00;96213.11;108480;1281;22574;-88
2023/12/31 08:49:14;;;;;;;15.40;10.20;;;;;;;3.61;100.00;96216.79;108374;1275;137833;-88
2023/12/31 08:51:41;;;;;;;12.10;9.00;;;;;;;3.59;100.00;96215.29;108480;1281;22531;-88
2023/12/31 08:54:08;;;;;;;14.80;10.40;;;;;;;3.58;100.00;96217.08;108353;1275;137766;-88
2023/12/31 08:56:34;;;;;;;20.40;12.40;;;;;;;3.54;100.00;96216.45;108398;1281;22658;-88
2023/12/31 08:59:01;;;;;;;19.70;13.20;;;;;;;3.49;100.00;96212.98;108444;1279;22662;-88
2023/12/31 09:01:29;;;;;;;23.10;14.60;;;;;;;3.47;100.00;96209.20;108336;1278;137970;-88
2023/12/31 09:03:56;;;;;;;17.40;12.20;;;;;;;3.48;100.00;96204.52;108478;1281;23357;-88
2023/12/31 09:06:23;;;;;;;17.10;11.80;;;;;;;3.47;100.00;96200.16;108421;1276;138280;-88
2023/12/31 09:08:51;;;;;;;24.10;14.10;;;;;;;3.46;100.00;96198.71;108460;1275;22631;-87
2023/12/31 09:11:19;;;;;;;23.10;14.90;;;;;;;3.49;100.00;96195.38;108458;1276;138176;-89
2023/12/31 09:13:47;;;;;;;23.20;14.50;;;;;;;3.49;100.00;96184.33;108454;1281;25535;-90
2023/12/31 09:16:17;;;;;;;19.50;14.00;;;;;;;3.50;100.00;96180.52;108648;1274;22659;-89
2023/12/31 09:18:44;;;;;;;23.90;16.10;;;;;;;3.54;100.00;96173.46;108401;1278;138447;-89
2023/12/31 09:21:10;;;;;;;17.40;13.10;;;;;;;3.57;100.00;96165.30;108538;1281;22749;-89
2023/12/31 09:23:37;;;;;;;21.20;13.70;;;;;;;3.64;100.00;96166.26;108306;1279;138793;-90
2023/12/31 09:26:06;;;;;;;15.10;11.90;;;;;;;3.67;100.00;96166.29;108422;1281;25427;-88
2023/12/31 09:28:33;;;;;;;21.70;13.30;;;;;;;3.73;100.00;96164.00;108457;1277;23039;-86
2023/12/31 09:31:00;;;;;;;16.10;11.70;;;;;;;3.78;100.00;96159.58;108277;1264;138191;-86
2023/12/31 09:33:27;;;;;;;13.50;8.80;;;;;;;3.82;100.00;96158.00;108426;1281;24161;-86
2023/12/31 09:35:53;;;;;;;10.20;6.50;;;;;;;3.97;100.00;96162.42;108336;1271;138158;-86
2023/12/31 09:38:20;;;;;;;11.30;7.50;;;;;;;4.24;100.00;96158.27;108400;1277;22566;-86
2023/12/31 09:40:46;;;;;;;10.60;6.90;;;;;;;4.40;100.00;96155.16;108393;1280;22573;-84
2023/12/31 09:43:15;;;;;;;5.20;3.30;;;;;;;4.46;100.00;96155.71;108327;1281;138139;-84
2023/12/31 09:45:44;;;;;;;2.40;1.90;;;;;;;4.65;100.00;96143.44;108542;1281;22554;-86
2023/12/31 09:48:11;;;;;;;3.30;2.50;;;;;;;4.93;100.00;96137.77;108438;1277;136684;-85
2023/12/31 09:50:38;;;;;;;6.70;3.70;;;;;;;5.12;100.00;96133.41;108419;1277;22541;-86
2023/12/31 09:53:04;;;;;;;5.40;3.20;;;;;;;5.21;100.00;96131.98;108406;1277;22594;-84
2023/12/31 09:55:31;;;;;;;5.90;3.10;;;;;;;5.25;100.00;96133.83;108466;1281;136615;-85
2023/12/31 09:57:58;;;;;;;3.10;2.20;;;;;;;5.33;100.00;96127.88;108682;1277;22577;-85
2023/12/31 10:00:25;;;;;;;4.30;2.20;;;;;;;5.52;100.00;96133.50;108342;1280;138180;-85
2023/12/31 10:02:51;;;;;;;5.40;3.40;;;;;;;5.68;100.00;96130.91;108439;1280;22568;-85
2023/12/31 10:05:20;;;;;;;5.00;3.70;;;;;;;5.80;100.00;96124.73;108356;1262;136865;-85
2023/12/31 10:07:47;;;;;;;8.90;4.90;;;;;;;5.89;100.00;96126.59;108543;1281;25434;-85
2023/12/31 10:10:18;;;;;;;9.50;4.80;;;;;;;6.00;100.00;96124.95;108513;1279;22542;-85
2023/12/31 10:12:45;;;;;;;5.60;3.80;;;;;;;6.12;99.82;96121.00;108313;1280;137852;-85
2023/12/31 10:15:11;;;;;;;5.00;3.10;;;;;;;6.22;99.91;96117.46;108469;1275;22527;-85
2023/12/31 10:17:38;;;;;;;6.30;4.60;;;;;;;6.28;99.95;96112.64;108668;1277;138235;-85
2023/12/31 10:20:05;;;;;;;5.70;3.00;;;;;;;6.35;99.41;96107.45;108485;1281;22541;-85
2023/12/31 10:22:36;;;;;;;3.30;2.20;;;;;;;6.44;99.33;96107.51;108485;1277;22530;-85
2023/12/31 10:25:24;;;;;;;3.90;2.40;;;;;;;6.59;98.41;96102.73;108269;1274;138189;-85
2023/12/31 10:27:50;;;;;;;6.00;3.30;;;;;;;6.77;97.30;96103.19;108509;1275;22555;-85
2023/12/31 10:30:18;;;;;;;3.20;2.80;;;;;;;6.93;97.12;96098.05;108338;1281;137718;-85
2023/12/31 10:32:44;;;;;;;5.50;3.30;;;;;;;7.03;96.93;96094.34;108429;1281;25430;-85
2023/12/31 10:35:11;;;;;;;21.30;8.20;;;;;;;7.12;95.70;96092.65;108323;1281;22560;-86
2023/12/31 10:37:39;;;;;;;9.50;4.00;;;;;;;7.21;95.71;96085.59;108263;1281;137748;-86
2023/12/31 10:40:19;;;;;;;7.90;4.80;;;;;;;7.29;95.49;96080.83;108328;1278;22540;-87
2023/12/31 10:42:52;;;;;;;10.80;7.20;;;;;;;7.34;95.91;96082.30;108308;1280;137474;-86
2023/12/31 10:45:19;;;;;;;13.10;9.40;;;;;;;7.35;95.03;96077.71;108332;1281;24241;-85
2023/12/31 10:47:50;;;;;;;9.10;7.00;;;;;;;7.38;93.96;96072.55;108172;1276;137656;-85
2023/12/31 10:50:21;;;;;;;;;;;;;;;7.41;95.28;96069.38;109428;1278;22559;-86
2023/12/31 10:53:01;;;;;;;14.00;11.50;;;;;;;7.36;94.11;96067.95;108313;1281;123942;-86
2023/12/31 10:55:29;;;;;;;15.10;11.50;;;;;;;7.34;93.85;96063.22;108343;1282;22537;-86
2023/12/31 10:57:55;;;;;;;11.20;8.70;;;;;;;7.33;93.43;96057.63;108255;1282;138091;-86
2023/12/31 11:00:22;;;;;;;14.40;9.40;;;;;;;7.34;94.03;96054.04;108341;1280;26592;-86
2023/12/31 11:02:49;;;;;;;16.00;10.50;;;;;;;7.34;93.19;96048.19;108432;1277;22590;-86
2023/12/31 11:05:16;;;;;;;13.80;9.90;;;;;;;7.34;92.83;96043.17;108346;1275;137506;-85
2023/12/31 11:07:45;;;;;;;14.60;9.70;;;;;;;7.37;93.40;96039.80;108342;1282;22561;-86
2023/12/31 11:10:13;;;;;;;9.50;7.10;;;;;;;7.41;93.73;96037.38;108441;1274;137332;-86
2023/12/31 11:12:40;;;;;;;8.20;5.10;;;;;;;7.50;92.96;96029.15;108423;1281;22612;-86
2023/12/31 11:15:13;;;;;;;9.30;6.00;;;;;;;7.62;92.94;96022.48;108740;1282;24202;-86
2023/12/31 11:18:05;;;;;;;10.50;6.60;;;;;;;7.70;93.42;96019.05;108385;1275;136905;-87
2023/12/31 11:20:51;;;;;;;12.30;8.10;;;;;;;7.74;93.19;96010.45;108504;1282;22569;-87
2023/12/31 11:23:38;;;;;;;9.50;6.50;;;;;;;7.80;92.68;96009.75;108297;1282;176792;-86
2023/12/31 11:26:08;;;;;;;14.20;8.60;;;;;;;7.88;93.11;96003.00;108476;1282;24614;-86
2023/12/31 11:28:35;;;;;;;9.00;5.90;;;;;;;7.94;92.33;95993.22;108686;1278;138079;-86